createdAt,value
2022-09-07T00:01:17.202Z,59.83
2022-09-07T00:03:45.896Z,59.78
2022-09-07T00:06:15.096Z,59.67
2022-09-07T00:08:46.852Z,59.88
2022-09-07T00:11:20.302Z,60.02
2022-09-07T00:13:50.113Z,59.95
2022-09-07T00:16:24.920Z,60.04
2022-09-07T00:18:56.302Z,60.13
2022-09-07T00:21:26.079Z,60.50
2022-09-07T00:23:55.271Z,60.53
2022-09-07T00:26:27.856Z,60.12
2022-09-07T00:29:01.942Z,60.54
2022-09-07T00:31:31.269Z,60.39
2022-09-07T00:34:01.387Z,60.64
2022-09-07T00:36:29.874Z,60.54
2022-09-07T00:38:58.620Z,60.70
2022-09-07T00:41:26.875Z,61.08
2022-09-07T00:44:19.673Z,61.08
2022-09-07T00:46:48.555Z,60.97
2022-09-07T00:49:21.560Z,60.98
2022-09-07T00:52:01.397Z,60.81
2022-09-07T00:54:42.619Z,61.09
2022-09-07T00:57:10.516Z,61.13
2022-09-07T00:59:44.089Z,61.05
2022-09-07T01:02:14.261Z,61.38
2022-09-07T01:04:46.844Z,61.12
2022-09-07T01:07:14.669Z,61.34
2022-09-07T01:09:47.403Z,61.68
2022-09-07T01:12:15.817Z,61.41
2022-09-07T01:14:47.822Z,61.39
2022-09-07T01:17:33.834Z,62.25
2022-09-07T01:20:28.974Z,62.13
2022-09-07T01:23:14.510Z,62.14
2022-09-07T01:26:01.016Z,62.33
2022-09-07T01:28:32.328Z,62.56
2022-09-07T01:31:29.902Z,62.62
2022-09-07T01:34:09.378Z,62.86
2022-09-07T01:36:57.848Z,63.03
2022-09-07T01:39:35.714Z,63.43
2022-09-07T01:42:31.367Z,63.70
2022-09-07T01:45:02.507Z,63.51
2022-09-07T01:47:36.326Z,63.37
2022-09-07T01:50:06.506Z,63.21
2022-09-07T01:52:56.680Z,63.29
2022-09-07T01:55:28.000Z,63.32
2022-09-07T01:58:02.503Z,63.18
2022-09-07T02:00:31.378Z,62.99
2022-09-07T02:03:13.040Z,63.21
2022-09-07T02:06:03.678Z,63.10
2022-09-07T02:08:40.339Z,63.17
2022-09-07T02:11:18.358Z,63.28
2022-09-07T02:13:52.360Z,63.15
2022-09-07T02:16:25.084Z,63.36
2022-09-07T02:19:05.603Z,63.57
2022-09-07T02:21:51.074Z,63.93
2022-09-07T02:24:25.861Z,64.13
2022-09-07T02:26:56.404Z,64.11
2022-09-07T02:29:28.048Z,64.53
2022-09-07T02:31:59.336Z,65.20
2022-09-07T02:34:28.097Z,65.01
2022-09-07T02:36:58.872Z,64.94
2022-09-07T02:39:27.554Z,65.03
2022-09-07T02:41:56.216Z,65.18
2022-09-07T02:44:31.870Z,65.07
2022-09-07T02:47:24.689Z,65.07
2022-09-07T02:50:14.051Z,65.12
2022-09-07T02:52:53.815Z,65.19
2022-09-07T02:55:43.113Z,65.34
2022-09-07T02:58:29.600Z,65.49
2022-09-07T03:01:16.952Z,65.43
2022-09-07T03:03:51.410Z,64.77
2022-09-07T03:06:27.038Z,64.98
2022-09-07T03:08:58.748Z,65.09
2022-09-07T03:11:29.953Z,64.54
2022-09-07T03:14:24.733Z,64.71
2022-09-07T03:16:56.797Z,64.67
2022-09-07T03:19:28.308Z,64.69
2022-09-07T03:21:57.513Z,64.56
2022-09-07T03:24:27.224Z,64.58
2022-09-07T03:26:56.833Z,64.47
2022-09-07T03:29:26.072Z,64.43
2022-09-07T03:31:58.092Z,64.31
2022-09-07T03:34:27.191Z,63.80
2022-09-07T03:36:56.464Z,63.58
2022-09-07T03:39:27.020Z,62.97
2022-09-07T03:41:55.413Z,63.02
2022-09-07T03:44:24.213Z,63.20
2022-09-07T03:46:52.855Z,63.08
2022-09-07T03:49:21.484Z,62.90
2022-09-07T03:51:49.974Z,62.78
2022-09-07T03:54:18.308Z,62.60
2022-09-07T03:56:47.622Z,62.13
2022-09-07T03:59:16.971Z,62.13
2022-09-07T04:01:46.726Z,62.06
2022-09-07T04:04:16.498Z,61.86
2022-09-07T04:06:44.827Z,61.89
2022-09-07T04:09:14.902Z,61.68
2022-09-07T04:11:43.590Z,61.59
2022-09-07T04:14:13.107Z,61.66
2022-09-07T04:16:42.985Z,61.72
2022-09-07T04:19:12.165Z,61.59
2022-09-07T04:21:41.426Z,62.03
2022-09-07T04:24:12.365Z,62.29
2022-09-07T04:26:43.919Z,62.23
2022-09-07T04:29:14.181Z,62.33
2022-09-07T04:31:42.430Z,62.52
2022-09-07T04:34:12.814Z,62.75
2022-09-07T04:36:41.756Z,62.77
2022-09-07T04:39:11.990Z,63.26
2022-09-07T04:41:41.317Z,63.52
2022-09-07T04:44:16.149Z,63.67
2022-09-07T04:46:45.247Z,64.13
2022-09-07T04:49:14.030Z,64.61
2022-09-07T04:51:45.169Z,65.94
2022-09-07T04:54:13.545Z,66.32
2022-09-07T04:56:41.929Z,67.18
2022-09-07T04:59:10.358Z,67.18
2022-09-07T05:01:38.741Z,67.13
2022-09-07T05:04:07.020Z,67.30
2022-09-07T05:06:35.164Z,68.17
2022-09-07T05:09:03.652Z,68.21
2022-09-07T05:11:31.927Z,68.55
2022-09-07T05:14:02.261Z,68.63
2022-09-07T05:16:31.971Z,69.51
2022-09-07T05:19:02.392Z,70.08
2022-09-07T05:21:35.085Z,70.21
2022-09-07T05:24:04.505Z,69.75
2022-09-07T05:26:36.048Z,69.11
2022-09-07T05:31:58.291Z,70.57
2022-09-07T05:37:00.883Z,69.27
2022-09-07T05:39:30.193Z,68.65
2022-09-07T05:41:58.621Z,69.09
2022-09-07T05:47:11.444Z,70.05
2022-09-07T05:49:39.177Z,70.63
2022-09-07T05:52:08.487Z,69.53
2022-09-07T05:54:36.240Z,69.34
2022-09-07T05:57:05.457Z,69.50
2022-09-07T05:59:34.140Z,67.38
2022-09-07T06:02:02.304Z,66.16
2022-09-07T06:04:29.987Z,67.93
2022-09-07T06:12:38.192Z,65.20
2022-09-07T06:15:07.214Z,66.74
2022-09-07T06:17:35.906Z,67.17
2022-09-07T06:20:06.027Z,63.58
2022-09-07T06:22:38.090Z,64.61
2022-09-07T06:25:06.780Z,61.05
2022-09-07T06:27:34.320Z,64.16
2022-09-07T06:30:04.258Z,61.17
2022-09-07T06:32:47.581Z,60.99
2022-09-07T06:35:16.072Z,63.34
2022-09-07T06:37:44.456Z,60.81
2022-09-07T06:40:13.070Z,60.12
2022-09-07T06:42:41.335Z,61.79
2022-09-07T06:45:11.877Z,61.91
2022-09-07T06:47:40.693Z,64.00
2022-09-07T06:50:13.228Z,57.53
2022-09-07T06:55:29.548Z,60.99
2022-09-07T06:57:57.582Z,62.00
2022-09-07T07:00:25.913Z,61.78
2022-09-07T07:02:54.140Z,61.13
2022-09-07T07:05:22.340Z,61.83
2022-09-07T07:07:50.436Z,61.60
2022-09-07T07:10:23.731Z,60.43
2022-09-07T07:12:57.811Z,57.43
2022-09-07T07:15:28.829Z,59.32
2022-09-07T07:18:02.602Z,60.45
2022-09-07T07:20:38.999Z,59.66
2022-09-07T07:23:07.144Z,58.42
2022-09-07T07:25:37.031Z,57.04
2022-09-07T07:30:57.982Z,57.56
2022-09-07T07:33:29.531Z,58.57
2022-09-07T07:36:19.076Z,59.09
2022-09-07T07:44:20.222Z,54.20
2022-09-07T07:46:49.554Z,54.42
2022-09-07T07:49:17.459Z,52.79
2022-09-07T07:54:37.158Z,55.39
2022-09-07T07:57:07.167Z,54.25
2022-09-07T07:59:35.966Z,55.46
2022-09-07T08:02:06.781Z,53.83
2022-09-07T08:04:35.758Z,54.31
2022-09-07T08:07:10.154Z,49.39
2022-09-07T08:09:48.491Z,48.53
2022-09-07T08:12:18.650Z,51.70
2022-09-07T08:14:48.482Z,49.43
2022-09-07T08:17:17.968Z,50.74
2022-09-07T08:19:46.128Z,51.58
2022-09-07T08:22:14.178Z,51.59
2022-09-07T08:24:42.322Z,52.79
2022-09-07T08:27:10.805Z,51.71
2022-09-07T08:29:38.939Z,50.58
2022-09-07T08:32:07.461Z,51.84
2022-09-07T08:34:37.394Z,50.85
2022-09-07T08:37:05.733Z,51.21
2022-09-07T08:39:34.318Z,51.58
2022-09-07T08:42:37.191Z,50.74
2022-09-07T08:45:07.292Z,46.07
2022-09-07T08:47:51.655Z,49.23
2022-09-07T08:50:34.260Z,49.63
2022-09-07T08:53:09.090Z,47.60
2022-09-07T08:55:39.626Z,48.85
2022-09-07T08:58:48.284Z,48.32
2022-09-07T09:01:35.724Z,48.64
2022-09-07T09:04:18.803Z,46.97
2022-09-07T09:07:00.758Z,43.07
2022-09-07T09:09:48.064Z,43.97
2022-09-07T09:13:02.307Z,46.94
2022-09-07T09:15:39.646Z,43.36
2022-09-07T09:18:28.068Z,43.88
2022-09-07T09:20:58.766Z,42.42
2022-09-07T09:23:31.230Z,40.21
2022-09-07T09:26:18.903Z,43.75
2022-09-07T09:28:47.135Z,41.05
2022-09-07T09:31:26.014Z,40.78
2022-09-07T09:34:05.659Z,45.54
2022-09-07T09:36:40.339Z,42.17
2022-09-07T09:39:29.550Z,38.44
2022-09-07T09:42:02.018Z,41.77
2022-09-07T09:44:37.759Z,42.53
2022-09-07T09:49:58.004Z,42.55
2022-09-07T09:52:31.815Z,43.28
2022-09-07T09:55:30.145Z,44.80
2022-09-07T10:03:55.113Z,43.12
2022-09-07T10:06:26.360Z,43.71
2022-09-07T10:09:00.278Z,41.70
2022-09-07T10:14:45.712Z,45.12
2022-09-07T10:17:20.444Z,44.32
2022-09-07T10:19:50.131Z,42.30
2022-09-07T10:22:40.986Z,41.95
2022-09-07T10:25:28.509Z,42.40
2022-09-07T10:28:04.321Z,40.83
2022-09-07T10:30:41.885Z,41.43
2022-09-07T10:33:28.203Z,42.93
2022-09-07T10:36:13.083Z,40.77
2022-09-07T10:39:17.590Z,40.81
2022-09-07T10:42:05.512Z,40.27
2022-09-07T10:44:42.584Z,42.66
2022-09-07T10:47:31.575Z,38.33
2022-09-07T10:50:29.252Z,40.56
2022-09-07T10:53:45.191Z,38.61
2022-09-07T10:56:16.143Z,39.46
2022-09-07T10:59:05.046Z,39.53
2022-09-07T11:01:59.751Z,42.02
2022-09-07T11:04:48.178Z,41.38
2022-09-07T11:07:28.628Z,41.11
2022-09-07T11:10:03.450Z,40.43
2022-09-07T11:12:39.766Z,40.82
2022-09-07T11:15:28.976Z,40.83
2022-09-07T11:18:00.888Z,37.94
2022-09-07T11:20:45.001Z,36.06
2022-09-07T11:23:21.774Z,33.79
2022-09-07T11:26:01.831Z,35.82
2022-09-07T11:28:41.968Z,38.33
2022-09-07T11:31:46.274Z,39.18
2022-09-07T11:34:36.668Z,37.74
2022-09-07T11:37:16.899Z,38.00
2022-09-07T11:39:53.948Z,37.92
2022-09-07T11:42:48.814Z,38.01
2022-09-07T11:45:19.729Z,37.00
2022-09-07T11:48:00.479Z,36.28
2022-09-07T11:50:33.074Z,37.08
2022-09-07T11:53:30.197Z,34.37
2022-09-07T11:56:03.826Z,38.06
2022-09-07T11:58:43.752Z,34.57
2022-09-07T12:01:55.429Z,36.38
2022-09-07T12:04:44.870Z,36.91
2022-09-07T12:07:39.189Z,37.90
2022-09-07T12:10:10.167Z,36.73
2022-09-07T12:13:08.202Z,37.76
2022-09-07T12:16:00.530Z,38.14
2022-09-07T12:18:34.563Z,37.61
2022-09-07T12:21:02.287Z,36.01
2022-09-07T12:23:31.991Z,36.55
2022-09-07T12:26:35.022Z,34.65
2022-09-07T12:29:17.942Z,37.03
2022-09-07T12:31:57.712Z,33.14
2022-09-07T12:34:33.793Z,33.45
2022-09-07T12:37:03.405Z,33.53
2022-09-07T12:39:33.206Z,34.70
2022-09-07T12:45:44.335Z,34.81
2022-09-07T12:48:18.282Z,35.69
2022-09-07T12:51:11.999Z,35.29
2022-09-07T12:53:57.447Z,36.39
2022-09-07T13:00:26.443Z,35.02
2022-09-07T13:09:31.749Z,31.33
2022-09-07T13:12:01.351Z,32.74
2022-09-07T13:14:29.949Z,33.82
2022-09-07T13:17:28.617Z,32.37
2022-09-07T13:20:07.171Z,33.15
2022-09-07T13:23:00.928Z,33.28
2022-09-07T13:25:53.255Z,33.59
2022-09-07T13:28:27.478Z,33.79
2022-09-07T13:31:14.239Z,31.52
2022-09-07T13:33:50.887Z,30.48
2022-09-07T13:36:48.960Z,33.79
2022-09-07T13:39:21.688Z,32.72
2022-09-07T13:41:54.630Z,33.33
2022-09-07T13:44:26.556Z,34.57
2022-09-07T13:46:58.878Z,34.03
2022-09-07T13:50:11.327Z,33.38
2022-09-07T13:53:14.897Z,31.78
2022-09-07T13:55:51.954Z,33.37
2022-09-07T13:58:39.929Z,34.05
2022-09-07T14:01:13.705Z,33.41
2022-09-07T14:03:54.224Z,31.58
2022-09-07T14:06:21.722Z,33.43
2022-09-07T14:09:14.940Z,30.43
2022-09-07T14:11:46.981Z,33.46
2022-09-07T14:14:22.760Z,32.37
2022-09-07T14:17:01.844Z,31.06
2022-09-07T14:19:46.037Z,31.68
2022-09-07T14:22:17.907Z,33.22
2022-09-07T14:24:54.771Z,33.14
2022-09-07T14:27:39.918Z,32.67
2022-09-07T14:30:19.594Z,34.19
2022-09-07T14:32:49.208Z,32.98
2022-09-07T14:35:20.490Z,32.27
2022-09-07T14:37:49.893Z,33.33
2022-09-07T14:40:22.315Z,32.61
2022-09-07T14:42:52.052Z,33.58
2022-09-07T14:45:22.901Z,31.35
2022-09-07T14:47:54.345Z,31.88
2022-09-07T14:50:32.182Z,31.32
2022-09-07T14:56:02.282Z,31.63
2022-09-07T14:58:35.150Z,31.37
2022-09-07T15:04:04.500Z,32.75
2022-09-07T15:09:39.403Z,32.22
2022-09-07T15:12:36.516Z,32.74
2022-09-07T15:15:26.173Z,33.33
2022-09-07T15:18:00.838Z,33.94
2022-09-07T15:20:40.353Z,34.69
2022-09-07T15:23:16.420Z,34.37
2022-09-07T15:25:50.855Z,34.29
2022-09-07T15:34:12.150Z,38.10
2022-09-07T15:36:43.129Z,38.86
2022-09-07T15:39:37.596Z,38.98
2022-09-07T15:44:54.305Z,40.26
2022-09-07T15:50:13.851Z,40.96
2022-09-07T15:52:41.880Z,40.37
2022-09-07T15:55:10.068Z,40.94
2022-09-07T15:58:05.510Z,41.05
2022-09-07T16:00:30.310Z,41.79
2022-09-07T16:03:06.812Z,42.15
2022-09-07T16:05:39.883Z,42.36
2022-09-07T16:11:04.499Z,42.72
2022-09-07T16:13:33.529Z,43.42
2022-09-07T16:16:02.249Z,43.31
2022-09-07T16:18:31.814Z,42.82
2022-09-07T16:21:12.591Z,43.80
2022-09-07T16:23:42.549Z,44.15
2022-09-07T16:26:12.161Z,45.00
2022-09-07T16:28:42.797Z,44.95
2022-09-07T16:31:15.311Z,45.06
2022-09-07T16:33:43.259Z,45.46
2022-09-07T16:36:13.369Z,45.23
2022-09-07T16:38:45.358Z,45.53
2022-09-07T16:41:17.559Z,45.65
2022-09-07T16:43:46.203Z,45.65
2022-09-07T16:46:16.588Z,45.84
2022-09-07T16:48:44.345Z,46.01
2022-09-07T16:51:13.959Z,45.81
2022-09-07T16:53:42.025Z,46.10
2022-09-07T16:56:12.174Z,46.54
2022-09-07T16:58:41.860Z,46.96
2022-09-07T17:01:11.609Z,46.51
2022-09-07T17:03:39.998Z,46.43
2022-09-07T17:06:09.827Z,46.37
2022-09-07T17:08:39.070Z,46.75
2022-09-07T17:11:36.830Z,46.95
2022-09-07T17:14:06.885Z,47.32
2022-09-07T17:16:37.247Z,47.49
2022-09-07T17:21:55.229Z,47.79
2022-09-07T17:24:25.549Z,47.62
2022-09-07T17:26:53.728Z,47.95
2022-09-07T17:29:21.805Z,48.48
2022-09-07T17:34:37.764Z,48.15
2022-09-07T17:37:06.092Z,48.15
2022-09-07T17:39:34.273Z,48.25
2022-09-07T17:42:02.352Z,48.04
2022-09-07T17:44:35.823Z,48.12
2022-09-07T17:47:06.600Z,48.30
2022-09-07T17:49:36.914Z,48.29
2022-09-07T17:52:05.971Z,48.51
2022-09-07T17:54:34.364Z,48.79
2022-09-07T17:57:03.519Z,48.87
2022-09-07T18:02:19.701Z,49.41
2022-09-07T18:04:47.754Z,49.34
2022-09-07T18:07:15.761Z,49.28
2022-09-07T18:09:44.033Z,49.84
2022-09-07T18:12:12.934Z,50.01
2022-09-07T18:14:40.965Z,49.80
2022-09-07T18:17:09.303Z,50.43
2022-09-07T18:19:38.802Z,50.29
2022-09-07T18:22:07.099Z,51.29
2022-09-07T18:24:37.162Z,51.21
2022-09-07T18:27:05.948Z,51.10
2022-09-07T18:29:34.805Z,51.20
2022-09-07T18:32:08.434Z,51.40
2022-09-07T18:34:41.028Z,51.32
2022-09-07T18:37:12.585Z,52.12
2022-09-07T18:39:41.185Z,52.02
2022-09-07T18:42:10.113Z,52.63
2022-09-07T18:47:29.341Z,52.87
2022-09-07T18:49:58.769Z,52.60
2022-09-07T18:55:18.285Z,51.81
2022-09-07T18:57:46.488Z,52.16
2022-09-07T19:00:17.625Z,52.66
2022-09-07T19:02:51.565Z,53.01
2022-09-07T19:08:08.889Z,54.30
2022-09-07T19:10:37.591Z,54.33
2022-09-07T19:13:05.721Z,54.34
2022-09-07T19:15:37.478Z,54.53
2022-09-07T19:18:07.941Z,54.60
2022-09-07T19:20:37.643Z,54.63
2022-09-07T19:23:06.736Z,54.77
2022-09-07T19:25:34.765Z,54.72
2022-09-07T19:28:02.918Z,54.68
2022-09-07T19:30:30.971Z,54.50
2022-09-07T19:33:03.501Z,55.00
2022-09-07T19:35:35.474Z,54.56
2022-09-07T19:38:03.613Z,54.68
2022-09-07T19:40:31.620Z,54.68
2022-09-07T19:42:59.771Z,54.46
2022-09-07T19:45:28.763Z,54.46
2022-09-07T19:47:57.181Z,54.53
2022-09-07T19:50:25.429Z,54.71
2022-09-07T19:52:53.702Z,54.74
2022-09-07T19:55:22.030Z,54.65
2022-09-07T19:57:51.742Z,54.50
2022-09-07T20:00:20.128Z,54.37
2022-09-07T20:02:52.603Z,54.39
2022-09-07T20:05:20.775Z,54.20
2022-09-07T20:07:48.776Z,54.45
2022-09-07T20:10:17.035Z,53.96
2022-09-07T20:12:44.962Z,54.25
2022-09-07T20:15:12.901Z,54.05
2022-09-07T20:17:41.370Z,54.31
2022-09-07T20:20:11.948Z,54.01
2022-09-07T20:22:40.649Z,54.41
2022-09-07T20:25:13.020Z,54.32
2022-09-07T20:27:41.955Z,54.27
2022-09-07T20:30:10.738Z,54.30
2022-09-07T20:32:40.781Z,54.16
2022-09-07T20:35:09.323Z,54.37
2022-09-07T20:37:38.138Z,54.52
2022-09-07T20:40:07.469Z,54.39
2022-09-07T20:42:36.399Z,54.89
2022-09-07T20:45:05.021Z,54.99
2022-09-07T20:53:53.687Z,54.07
2022-09-07T20:56:24.337Z,54.75
2022-09-07T20:59:00.231Z,54.49
2022-09-07T21:01:29.325Z,54.90
2022-09-07T21:03:59.338Z,55.17
2022-09-07T21:06:28.345Z,55.06
2022-09-07T21:08:57.348Z,55.28
2022-09-07T21:11:31.396Z,55.46
2022-09-07T21:14:07.868Z,55.45
2022-09-07T21:16:36.204Z,55.57
2022-09-07T21:19:06.117Z,55.56
2022-09-07T21:21:39.473Z,55.69
2022-09-07T21:24:19.459Z,55.83
2022-09-07T21:26:48.146Z,55.83
2022-09-07T21:29:21.851Z,55.70
2022-09-07T21:31:49.751Z,56.16
2022-09-07T21:34:17.648Z,55.88
2022-09-07T21:36:46.300Z,55.89
2022-09-07T21:39:14.932Z,55.58
2022-09-07T21:41:44.388Z,55.85
2022-09-07T21:44:14.786Z,55.32
2022-09-07T21:46:44.378Z,55.43
2022-09-07T21:49:13.451Z,55.28
2022-09-07T21:51:42.730Z,55.74
2022-09-07T21:54:11.174Z,55.46
2022-09-07T21:56:43.241Z,55.61
2022-09-07T21:59:14.908Z,55.51
2022-09-07T22:01:43.451Z,55.48
2022-09-07T22:04:12.519Z,55.81
2022-09-07T22:06:41.506Z,55.44
2022-09-07T22:09:09.557Z,55.69
2022-09-07T22:11:37.680Z,55.66
2022-09-07T22:14:06.523Z,55.25
2022-09-07T22:16:36.137Z,55.03
2022-09-07T22:19:05.647Z,55.34
2022-09-07T22:21:34.404Z,55.42
2022-09-07T22:24:05.395Z,55.00
2022-09-07T22:26:37.756Z,55.23
2022-09-07T22:29:06.820Z,55.22
2022-09-07T22:31:36.795Z,55.17
2022-09-07T22:34:10.181Z,55.10
2022-09-07T22:36:41.151Z,55.42
2022-09-07T22:39:16.219Z,55.60
2022-09-07T22:41:46.009Z,55.46
2022-09-07T22:44:16.746Z,55.70
2022-09-07T22:46:46.975Z,56.11
2022-09-07T22:49:17.375Z,56.17
2022-09-07T22:51:46.363Z,56.24
2022-09-07T22:54:15.055Z,56.45
2022-09-07T22:56:43.736Z,56.74
2022-09-07T22:59:13.105Z,56.77
2022-09-07T23:01:42.035Z,56.20
2022-09-07T23:04:11.322Z,56.44
2022-09-07T23:06:55.547Z,56.86
2022-09-07T23:09:23.351Z,57.15
2022-09-07T23:11:50.820Z,56.77
2022-09-07T23:14:22.227Z,56.98
2022-09-07T23:16:51.160Z,56.92
2022-09-07T23:19:20.884Z,57.01
2022-09-07T23:21:49.768Z,57.25
2022-09-07T23:24:19.668Z,57.68
2022-09-07T23:26:49.568Z,57.54
